Time;durP1;ratioP1;P1;durP2;ratioP2;P2;SDS_P1;SDS_P2;PMS_P1;PMS_P2;Temp;Humidity;BMP_temperature;BMP_pressure;BME280_temperature;BME280_humidity;BME280_pressure;Samples;Min_cycle;Max_cycle;Signal;HPM_P1;HPM_P2
2023/09/01 00:02:24;;;;;;;5.50;3.90;;;;;;;;;;4960853;28;20414;-86
2023/09/01 00:04:52;;;;;;;5.75;3.85;;;;;;;;;;4962505;28;20051;-86
2023/09/01 00:07:19;;;;;;;8.07;4.28;;;;;;;;;;4981815;28;20057;-86
2023/09/01 00:09:46;;;;;;;6.70;3.45;;;;;;;;;;4960540;28;20051;-86
2023/09/01 00:12:14;;;;;;;5.53;3.85;;;;;;;;;;4960329;28;20102;-86
2023/09/01 00:14:41;;;;;;;9.38;4.03;;;;;;;;;;4960078;28;20062;-86
2023/09/01 00:17:11;;;;;;;5.07;4.38;;;;;;;;;;4959765;28;20411;-85
2023/09/01 00:19:39;;;;;;;5.63;4.15;;;;;;;;;;4977326;28;20074;-86
2023/09/01 00:22:07;;;;;;;8.55;3.95;;;;;;;;;;4976823;28;20089;-86
2023/09/01 00:24:34;;;;;;;9.07;4.25;;;;;;;;;;4977233;28;20361;-86
2023/09/01 00:27:02;;;;;;;6.35;4.10;;;;;;;;;;4959756;28;20097;-86
2023/09/01 00:29:33;;;;;;;9.48;4.47;;;;;;;;;;4960042;28;20047;-86
2023/09/01 00:32:01;;;;;;;11.60;4.97;;;;;;;;;;4976675;28;20057;-87
2023/09/01 00:34:30;;;;;;;7.30;4.65;;;;;;;;;;4959794;28;20043;-85
2023/09/01 00:36:58;;;;;;;6.63;4.53;;;;;;;;;;4976503;28;20074;-86
2023/09/01 00:39:25;;;;;;;10.43;4.70;;;;;;;;;;4959891;28;20411;-86
2023/09/01 00:41:52;;;;;;;7.68;4.50;;;;;;;;;;4959185;28;20058;-86
2023/09/01 00:44:20;;;;;;;8.63;4.75;;;;;;;;;;4976681;28;20047;-86
2023/09/01 00:46:47;;;;;;;5.97;4.03;;;;;;;;;;4959299;28;20074;-86
2023/09/01 00:49:17;;;;;;;5.70;4.63;;;;;;;;;;4976578;28;20042;-86
2023/09/01 00:51:46;;;;;;;7.10;4.22;;;;;;;;;;4959706;28;20082;-85
2023/09/01 00:54:15;;;;;;;9.63;4.45;;;;;;;;;;4976357;28;20455;-85
2023/09/01 00:56:42;;;;;;;9.50;5.18;;;;;;;;;;4959088;28;20065;-85
2023/09/01 00:59:10;;;;;;;7.65;4.43;;;;;;;;;;4976351;28;20562;-85
2023/09/01 01:01:37;;;;;;;9.18;4.30;;;;;;;;;;4976288;28;20046;-86
2023/09/01 01:04:07;;;;;;;9.85;4.85;;;;;;;;;;4959465;28;20050;-86
2023/09/01 01:06:47;;;;;;;6.82;4.45;;;;;;;;;;4958245;28;20055;-86
2023/09/01 01:09:29;;;;;;;6.82;4.55;;;;;;;;;;4959248;28;20051;-86
2023/09/01 01:11:59;;;;;;;8.27;4.90;;;;;;;;;;4976244;28;20122;-85
2023/09/01 01:14:28;;;;;;;7.07;4.60;;;;;;;;;;4959155;28;20484;-86
2023/09/01 01:16:56;;;;;;;8.70;4.80;;;;;;;;;;4958923;28;20073;-85
2023/09/01 01:19:43;;;;;;;4.40;4.07;;;;;;;;;;4958715;28;20098;-84
2023/09/01 01:22:10;;;;;;;7.05;4.93;;;;;;;;;;4959213;28;20054;-86
2023/09/01 01:24:38;;;;;;;8.70;5.07;;;;;;;;;;4959125;28;20056;-86
2023/09/01 01:27:05;;;;;;;7.50;4.05;;;;;;;;;;4958705;28;20051;-86
2023/09/01 01:29:32;;;;;;;5.68;3.88;;;;;;;;;;4975867;28;20504;-86
2023/09/01 01:32:00;;;;;;;12.18;4.03;;;;;;;;;;4975787;28;20042;-86
2023/09/01 01:34:36;;;;;;;7.38;3.90;;;;;;;;;;4959015;28;20088;-86
2023/09/01 01:37:04;;;;;;;6.97;4.28;;;;;;;;;;4958733;28;20078;-86
2023/09/01 01:39:33;;;;;;;6.93;4.25;;;;;;;;;;4975852;28;20047;-86
2023/09/01 01:42:03;;;;;;;8.10;4.57;;;;;;;;;;4958502;28;20051;-86
2023/09/01 01:44:33;;;;;;;17.02;5.75;;;;;;;;;;4975411;28;20051;-85
2023/09/01 01:47:01;;;;;;;9.82;5.65;;;;;;;;;;4975299;28;20047;-86
2023/09/01 01:49:29;;;;;;;8.98;5.43;;;;;;;;;;4958410;28;20050;-85
2023/09/01 01:51:56;;;;;;;13.93;6.78;;;;;;;;;;4958537;28;20074;-86
2023/09/01 01:54:23;;;;;;;7.25;5.40;;;;;;;;;;4975274;28;20188;-86
2023/09/01 01:56:50;;;;;;;9.13;6.85;;;;;;;;;;4958430;28;20050;-84
2023/09/01 01:59:18;;;;;;;13.88;5.57;;;;;;;;;;4975592;28;20478;-85
2023/09/01 02:01:45;;;;;;;8.98;6.90;;;;;;;;;;4958758;28;20113;-86
2023/09/01 02:04:12;;;;;;;12.70;5.32;;;;;;;;;;4958458;28;20054;-86
2023/09/01 02:06:39;;;;;;;7.82;6.07;;;;;;;;;;4964067;28;20089;-86
2023/09/01 02:09:09;;;;;;;11.32;5.85;;;;;;;;;;4978497;28;20039;-85
2023/09/01 02:11:37;;;;;;;11.80;5.00;;;;;;;;;;4962537;28;20055;-86
2023/09/01 02:14:05;;;;;;;13.32;6.05;;;;;;;;;;4958285;28;20107;-86
2023/09/01 02:16:33;;;;;;;8.20;5.40;;;;;;;;;;4974821;28;20055;-85
2023/09/01 02:19:00;;;;;;;10.98;4.57;;;;;;;;;;4957935;28;20510;-85
2023/09/01 02:21:27;;;;;;;11.77;5.70;;;;;;;;;;4957971;28;20051;-85
2023/09/01 02:23:55;;;;;;;8.88;5.15;;;;;;;;;;4957871;28;20057;-86
2023/09/01 02:26:24;;;;;;;9.05;5.20;;;;;;;;;;4974856;28;20523;-86
2023/09/01 02:28:52;;;;;;;9.85;4.82;;;;;;;;;;4957759;28;20077;-86
2023/09/01 02:31:19;;;;;;;8.45;5.25;;;;;;;;;;4974745;28;20051;-85
2023/09/01 02:33:46;;;;;;;10.48;4.50;;;;;;;;;;4957662;28;20418;-86
2023/09/01 02:36:31;;;;;;;7.93;4.40;;;;;;;;;;4957631;28;20079;-86
2023/09/01 02:38:58;;;;;;;8.82;4.90;;;;;;;;;;4957569;28;20047;-85
2023/09/01 02:41:26;;;;;;;6.15;4.68;;;;;;;;;;4957761;28;20051;-85
2023/09/01 02:43:53;;;;;;;9.60;5.07;;;;;;;;;;4974198;28;20121;-85
2023/09/01 02:46:21;;;;;;;8.82;4.60;;;;;;;;;;4974429;28;20503;-86
2023/09/01 02:48:48;;;;;;;7.00;4.82;;;;;;;;;;4957630;28;20050;-85
2023/09/01 02:51:16;;;;;;;9.23;5.03;;;;;;;;;;4974350;28;20051;-86
2023/09/01 02:53:43;;;;;;;9.60;4.40;;;;;;;;;;4957680;28;20109;-86
2023/09/01 02:56:10;;;;;;;8.93;4.45;;;;;;;;;;4976612;28;20046;-85
2023/09/01 02:58:38;;;;;;;14.43;4.80;;;;;;;;;;4977005;28;20050;-85
2023/09/01 03:01:09;;;;;;;19.48;4.97;;;;;;;;;;4994204;28;20047;-86
2023/09/01 03:03:37;;;;;;;5.20;4.50;;;;;;;;;;4994012;28;20054;-86
2023/09/01 03:06:10;;;;;;;6.03;5.20;;;;;;;;;;4976531;28;20050;-85
2023/09/01 03:08:38;;;;;;;9.65;5.30;;;;;;;;;;4994107;28;20128;-86
2023/09/01 03:11:06;;;;;;;9.85;4.47;;;;;;;;;;4976503;28;20074;-85
2023/09/01 03:13:33;;;;;;;13.85;5.65;;;;;;;;;;4976921;28;20060;-86
2023/09/01 03:16:01;;;;;;;8.85;5.03;;;;;;;;;;4976826;28;20092;-86
2023/09/01 03:18:28;;;;;;;5.07;4.40;;;;;;;;;;4976539;28;20050;-85
2023/09/01 03:20:57;;;;;;;10.10;4.38;;;;;;;;;;4976775;28;20051;-86
2023/09/01 03:23:24;;;;;;;14.02;5.47;;;;;;;;;;4994107;28;20081;-86
2023/09/01 03:25:55;;;;;;;12.13;5.10;;;;;;;;;;4993853;28;20058;-86
2023/09/01 03:28:23;;;;;;;7.72;4.47;;;;;;;;;;4976886;28;20047;-86
2023/09/01 03:30:50;;;;;;;5.93;5.20;;;;;;;;;;4996653;28;20042;-86
2023/09/01 03:33:17;;;;;;;8.07;5.18;;;;;;;;;;4980907;28;20113;-86
2023/09/01 03:35:45;;;;;;;8.48;4.82;;;;;;;;;;4978885;28;20090;-86
2023/09/01 03:38:12;;;;;;;9.13;4.75;;;;;;;;;;4997590;28;20050;-86
2023/09/01 03:40:40;;;;;;;7.50;4.45;;;;;;;;;;4980449;28;20562;-86
2023/09/01 03:43:07;;;;;;;11.23;5.45;;;;;;;;;;4997364;28;20090;-85
2023/09/01 03:45:35;;;;;;;11.93;6.57;;;;;;;;;;4997415;28;20050;-86
2023/09/01 03:48:04;;;;;;;12.48;6.13;;;;;;;;;;4980483;28;20050;-86
2023/09/01 03:50:34;;;;;;;12.50;6.25;;;;;;;;;;4997804;28;20085;-86
2023/09/01 03:53:02;;;;;;;12.90;4.90;;;;;;;;;;4980477;28;20093;-85
2023/09/01 03:55:32;;;;;;;6.80;4.72;;;;;;;;;;4980461;28;20077;-86
2023/09/01 03:58:00;;;;;;;6.28;4.10;;;;;;;;;;4979918;28;20074;-85
2023/09/01 04:00:27;;;;;;;7.25;4.22;;;;;;;;;;4980266;28;20415;-86
2023/09/01 04:02:54;;;;;;;10.00;5.13;;;;;;;;;;4979696;28;20054;-85
2023/09/01 04:05:22;;;;;;;12.60;5.40;;;;;;;;;;4979573;28;20054;-85
2023/09/01 04:07:49;;;;;;;11.10;4.90;;;;;;;;;;4979674;28;20387;-86
2023/09/01 04:10:16;;;;;;;14.30;4.40;;;;;;;;;;4996847;28;20046;-86
2023/09/01 04:12:44;;;;;;;17.27;5.28;;;;;;;;;;4979746;28;20058;-85
2023/09/01 04:15:11;;;;;;;10.43;4.30;;;;;;;;;;4996368;28;20042;-85
2023/09/01 04:17:38;;;;;;;13.60;5.25;;;;;;;;;;4979603;28;20050;-86
2023/09/01 04:20:07;;;;;;;9.65;4.75;;;;;;;;;;4979166;28;20133;-86
2023/09/01 04:22:36;;;;;;;12.30;4.68;;;;;;;;;;4996298;28;20100;-86
2023/09/01 04:25:06;;;;;;;8.23;4.85;;;;;;;;;;4979684;28;20060;-85
2023/09/01 04:27:34;;;;;;;10.77;4.47;;;;;;;;;;4996391;28;20446;-86
2023/09/01 04:30:01;;;;;;;8.10;4.63;;;;;;;;;;4979030;28;20093;-86
2023/09/01 04:32:36;;;;;;;6.55;3.90;;;;;;;;;;4996504;28;20085;-85
2023/09/01 04:35:05;;;;;;;12.13;3.88;;;;;;;;;;4979073;28;20419;-86
2023/09/01 04:37:32;;;;;;;23.25;5.72;;;;;;;;;;4996168;28;20093;-86
2023/09/01 04:39:59;;;;;;;22.52;5.55;;;;;;;;;;4978659;28;20105;-86
2023/09/01 04:42:27;;;;;;;11.25;4.60;;;;;;;;;;4977639;28;20475;-86
2023/09/01 04:44:54;;;;;;;15.75;6.22;;;;;;;;;;4979161;28;20128;-86
2023/09/01 04:47:21;;;;;;;19.73;5.13;;;;;;;;;;4996044;28;20134;-85
2023/09/01 04:49:49;;;;;;;18.80;5.97;;;;;;;;;;4979109;28;20086;-86
2023/09/01 04:52:16;;;;;;;9.18;6.03;;;;;;;;;;4979261;28;20054;-86
2023/09/01 04:54:52;;;;;;;16.75;6.00;;;;;;;;;;4982717;28;20046;-87
2023/09/01 04:57:20;;;;;;;9.98;5.53;;;;;;;;;;4982369;28;20050;-86
2023/09/01 04:59:48;;;;;;;10.70;5.43;;;;;;;;;;4979569;28;20050;-86
2023/09/01 05:02:15;;;;;;;11.27;4.97;;;;;;;;;;4978932;28;20112;-87
2023/09/01 05:04:42;;;;;;;8.02;5.45;;;;;;;;;;4978610;28;20553;-86
2023/09/01 05:07:09;;;;;;;12.38;5.75;;;;;;;;;;4978561;28;20050;-86
2023/09/01 05:09:37;;;;;;;12.85;5.43;;;;;;;;;;4978894;28;20056;-87
2023/09/01 05:12:04;;;;;;;13.30;5.68;;;;;;;;;;4978800;28;20058;-86
2023/09/01 05:14:31;;;;;;;12.25;5.65;;;;;;;;;;4974328;28;20058;-87
2023/09/01 05:17:02;;;;;;;8.45;5.35;;;;;;;;;;4969731;28;20053;-85
2023/09/01 05:19:29;;;;;;;9.40;4.85;;;;;;;;;;4968976;28;20058;-86
2023/09/01 05:21:59;;;;;;;11.40;5.30;;;;;;;;;;4967998;28;20071;-86
2023/09/01 05:24:27;;;;;;;14.07;5.22;;;;;;;;;;4967980;28;20499;-86
2023/09/01 05:26:55;;;;;;;8.23;4.60;;;;;;;;;;4967943;28;20050;-87
2023/09/01 05:29:27;;;;;;;7.43;5.10;;;;;;;;;;4971469;28;20050;-86
2023/09/01 05:31:54;;;;;;;31.70;15.43;;;;;;;;;;4959707;28;20492;-86
2023/09/01 05:34:21;;;;;;;21.02;10.90;;;;;;;;;;4958876;28;20106;-86
2023/09/01 05:36:49;;;;;;;28.73;13.68;;;;;;;;;;4958768;28;20058;-87
2023/09/01 05:39:16;;;;;;;33.10;16.23;;;;;;;;;;4958927;28;20510;-87
2023/09/01 05:41:44;;;;;;;15.82;8.15;;;;;;;;;;4958834;28;20047;-86
2023/09/01 05:44:11;;;;;;;15.93;8.27;;;;;;;;;;4958212;28;20055;-86
2023/09/01 05:46:38;;;;;;;37.72;10.85;;;;;;;;;;4958621;28;20047;-87
2023/09/01 05:49:05;;;;;;;15.25;8.50;;;;;;;;;;4958529;28;20051;-86
2023/09/01 05:51:32;;;;;;;19.75;9.27;;;;;;;;;;4958934;28;20109;-86
2023/09/01 05:54:00;;;;;;;28.52;10.27;;;;;;;;;;4957640;28;20054;-87
2023/09/01 05:56:27;;;;;;;21.25;8.93;;;;;;;;;;4957975;28;20296;-86
2023/09/01 05:58:54;;;;;;;40.75;11.32;;;;;;;;;;4957911;28;20117;-86
2023/09/01 06:01:21;;;;;;;22.58;8.70;;;;;;;;;;4958157;28;20046;-86
2023/09/01 06:03:49;;;;;;;11.45;6.20;;;;;;;;;;4958212;28;20053;-86
2023/09/01 06:06:16;;;;;;;28.90;7.38;;;;;;;;;;4957865;28;20466;-87
2023/09/01 06:08:44;;;;;;;10.77;8.88;;;;;;;;;;4958328;28;20058;-87
2023/09/01 06:11:15;;;;;;;8.90;5.88;;;;;;;;;;4958618;28;20066;-87
2023/09/01 06:13:42;;;;;;;8.85;4.82;;;;;;;;;;4958074;28;20101;-88
2023/09/01 06:16:10;;;;;;;11.73;9.45;;;;;;;;;;4957991;28;20057;-87
2023/09/01 06:18:37;;;;;;;5.80;2.90;;;;;;;;;;4958045;28;20061;-87
2023/09/01 06:21:04;;;;;;;3.22;2.47;;;;;;;;;;4957956;28;20062;-88
2023/09/01 06:23:32;;;;;;;4.45;3.50;;;;;;;;;;4958307;28;20059;-87
2023/09/01 06:25:59;;;;;;;1.50;1.45;;;;;;;;;;4957380;28;20078;-87
2023/09/01 06:28:26;;;;;;;2.15;1.80;;;;;;;;;;4957976;28;20059;-88
2023/09/01 06:30:53;;;;;;;4.85;3.17;;;;;;;;;;4958091;28;20043;-87
2023/09/01 06:33:20;;;;;;;3.90;2.60;;;;;;;;;;4958123;28;20101;-87
2023/09/01 06:35:48;;;;;;;3.25;2.72;;;;;;;;;;4957598;28;20070;-87
2023/09/01 06:38:15;;;;;;;1.95;1.60;;;;;;;;;;4957666;28;20435;-87
2023/09/01 06:40:43;;;;;;;3.08;1.58;;;;;;;;;;4958097;28;20139;-89
2023/09/01 06:43:11;;;;;;;3.13;1.35;;;;;;;;;;4957642;28;20078;-86
2023/09/01 06:45:38;;;;;;;1.55;1.45;;;;;;;;;;4957392;28;20047;-89
2023/09/01 06:48:05;;;;;;;1.35;1.13;;;;;;;;;;4957221;28;20145;-87
2023/09/01 06:50:33;;;;;;;3.20;1.10;;;;;;;;;;4957819;28;20106;-89
2023/09/01 06:53:00;;;;;;;4.18;1.00;;;;;;;;;;4957584;28;20550;-88
2023/09/01 06:55:27;;;;;;;1.35;1.05;;;;;;;;;;4957629;28;20058;-87
2023/09/01 06:57:54;;;;;;;1.27;1.10;;;;;;;;;;4957632;28;20078;-88
2023/09/01 07:00:22;;;;;;;1.42;1.10;;;;;;;;;;4957968;28;20874;-87
2023/09/01 07:02:49;;;;;;;5.35;0.93;;;;;;;;;;4957634;28;20050;-88
2023/09/01 07:05:17;;;;;;;1.45;0.82;;;;;;;;;;4957042;28;20054;-88
2023/09/01 07:07:44;;;;;;;0.60;0.60;;;;;;;;;;4957525;28;20093;-87
2023/09/01 07:10:11;;;;;;;0.60;0.60;;;;;;;;;;4957542;28;20515;-87
2023/09/01 07:12:39;;;;;;;1.48;0.70;;;;;;;;;;4957631;28;20505;-88
2023/09/01 07:15:06;;;;;;;1.05;0.65;;;;;;;;;;4957442;28;20055;-87
2023/09/01 07:17:37;;;;;;;0.68;0.68;;;;;;;;;;4957458;28;20102;-90
2023/09/01 07:20:04;;;;;;;0.75;0.50;;;;;;;;;;4956910;28;20065;-87
2023/09/01 07:22:32;;;;;;;0.55;0.55;;;;;;;;;;4957137;28;20058;-90
2023/09/01 07:24:59;;;;;;;0.80;0.80;;;;;;;;;;4958512;28;20058;-87
2023/09/01 07:27:27;;;;;;;0.60;0.52;;;;;;;;;;4957467;28;20046;-88
2023/09/01 07:29:54;;;;;;;1.05;0.70;;;;;;;;;;4957291;28;20117;-89
2023/09/01 07:32:21;;;;;;;0.95;0.88;;;;;;;;;;4957216;28;20133;-88
2023/09/01 07:34:48;;;;;;;0.70;0.70;;;;;;;;;;4957846;28;20495;-87
2023/09/01 07:37:16;;;;;;;1.75;0.63;;;;;;;;;;4958100;28;20491;-88
2023/09/01 07:39:43;;;;;;;1.48;0.55;;;;;;;;;;4959963;28;20055;-89
2023/09/01 07:42:11;;;;;;;0.85;0.80;;;;;;;;;;4970769;28;20054;-86
2023/09/01 07:44:38;;;;;;;0.80;0.80;;;;;;;;;;4971143;28;20488;-87
2023/09/01 07:47:05;;;;;;;1.00;0.90;;;;;;;;;;4958151;28;20491;-87
2023/09/01 07:49:32;;;;;;;1.05;0.85;;;;;;;;;;4957440;28;20154;-87
2023/09/01 07:52:00;;;;;;;1.17;0.70;;;;;;;;;;4957198;28;20043;-87
2023/09/01 07:54:27;;;;;;;0.98;0.75;;;;;;;;;;4956572;28;20125;-88
2023/09/01 07:56:54;;;;;;;2.95;0.98;;;;;;;;;;4957235;28;20070;-90
2023/09/01 07:59:22;;;;;;;1.90;0.80;;;;;;;;;;4957026;28;20170;-88
2023/09/01 08:01:49;;;;;;;1.58;1.00;;;;;;;;;;4957062;28;20046;-86
2023/09/01 08:04:16;;;;;;;0.93;0.77;;;;;;;;;;4956678;28;20447;-87
2023/09/01 08:06:43;;;;;;;1.48;0.70;;;;;;;;;;4957109;28;20098;-88
2023/09/01 08:09:11;;;;;;;1.42;0.80;;;;;;;;;;4956871;28;20581;-87
2023/09/01 08:11:38;;;;;;;1.50;0.70;;;;;;;;;;4957169;28;20109;-88
2023/09/01 08:14:05;;;;;;;1.25;0.52;;;;;;;;;;4957030;28;20073;-89
2023/09/01 08:16:35;;;;;;;1.58;0.60;;;;;;;;;;4959491;28;20058;-86
2023/09/01 08:19:03;;;;;;;1.65;0.80;;;;;;;;;;4959814;28;20050;-88
2023/09/01 08:21:30;;;;;;;0.60;0.60;;;;;;;;;;4960220;28;20070;-89
2023/09/01 08:23:58;;;;;;;1.75;0.82;;;;;;;;;;4960187;28;20051;-88
2023/09/01 08:26:25;;;;;;;3.78;0.77;;;;;;;;;;4959788;28;20525;-92
2023/09/01 08:28:52;;;;;;;1.20;0.65;;;;;;;;;;4960108;28;20101;-88
2023/09/01 08:31:19;;;;;;;1.65;0.80;;;;;;;;;;4960222;28;20090;-90
2023/09/01 08:33:47;;;;;;;1.15;0.70;;;;;;;;;;4960205;28;20062;-88
2023/09/01 08:36:14;;;;;;;2.83;0.63;;;;;;;;;;4960183;28;20467;-89
2023/09/01 08:38:41;;;;;;;0.68;0.52;;;;;;;;;;4959893;28;20105;-90
2023/09/01 08:41:10;;;;;;;2.45;0.80;;;;;;;;;;4960152;28;20061;-88
2023/09/01 08:43:42;;;;;;;0.50;0.47;;;;;;;;;;4959411;28;20134;-88
2023/09/01 08:46:11;;;;;;;3.45;0.60;;;;;;;;;;4959976;28;20051;-90
2023/09/01 08:48:42;;;;;;;1.30;0.60;;;;;;;;;;4960502;28;20042;-90
2023/09/01 08:51:09;;;;;;;0.70;0.35;;;;;;;;;;4959832;28;20055;-88
2023/09/01 08:53:39;;;;;;;4.88;0.52;;;;;;;;;;4959712;28;20392;-86
2023/09/01 08:56:06;;;;;;;3.08;0.47;;;;;;;;;;4959582;28;20055;-88
2023/09/01 08:58:34;;;;;;;2.17;0.60;;;;;;;;;;4959490;28;20195;-87
2023/09/01 09:01:01;;;;;;;1.10;0.47;;;;;;;;;;4959363;28;20050;-87
2023/09/01 09:03:29;;;;;;;12.02;1.73;;;;;;;;;;4958909;28;20093;-87
2023/09/01 09:05:57;;;;;;;1.00;0.60;;;;;;;;;;4959234;28;20070;-86
2023/09/01 09:08:24;;;;;;;0.50;0.40;;;;;;;;;;4959381;28;20418;-87
2023/09/01 09:10:51;;;;;;;0.98;0.70;;;;;;;;;;4959112;28;20054;-87
2023/09/01 09:13:29;;;;;;;1.58;0.50;;;;;;;;;;4959483;28;20051;-87
2023/09/01 09:16:09;;;;;;;1.30;0.50;;;;;;;;;;4958924;28;20415;-87
2023/09/01 09:18:37;;;;;;;2.00;0.50;;;;;;;;;;4959270;28;20047;-88
2023/09/01 09:21:22;;;;;;;1.58;0.50;;;;;;;;;;4959253;28;20475;-87
2023/09/01 09:23:49;;;;;;;0.30;0.30;;;;;;;;;;4959061;28;20051;-87
2023/09/01 09:26:16;;;;;;;0.40;0.40;;;;;;;;;;4959159;28;20396;-87
2023/09/01 09:28:46;;;;;;;2.42;0.77;;;;;;;;;;4958275;28;20043;-87
2023/09/01 09:31:13;;;;;;;2.20;0.40;;;;;;;;;;4959171;28;20082;-88
2023/09/01 09:33:42;;;;;;;0.57;0.40;;;;;;;;;;4958981;28;20133;-87
2023/09/01 09:36:12;;;;;;;0.50;0.32;;;;;;;;;;4956640;28;20058;-87
2023/09/01 09:38:40;;;;;;;0.30;0.30;;;;;;;;;;4958767;28;20073;-87
2023/09/01 09:41:08;;;;;;;0.40;0.40;;;;;;;;;;4959058;28;20411;-87
2023/09/01 09:43:45;;;;;;;0.40;0.40;;;;;;;;;;4958891;28;20059;-86
2023/09/01 09:46:13;;;;;;;0.30;0.30;;;;;;;;;;4958767;28;20059;-86
2023/09/01 09:48:41;;;;;;;0.40;0.40;;;;;;;;;;4958773;28;20055;-89
2023/09/01 09:51:09;;;;;;;0.47;0.35;;;;;;;;;;4958827;28;20047;-87
2023/09/01 09:53:36;;;;;;;0.80;0.30;;;;;;;;;;4958796;28;20055;-87
2023/09/01 09:56:18;;;;;;;0.45;0.30;;;;;;;;;;4959404;28;20074;-88
2023/09/01 09:58:46;;;;;;;0.30;0.28;;;;;;;;;;4958694;28;20124;-87
2023/09/01 10:01:19;;;;;;;1.40;0.45;;;;;;;;;;4959153;28;20558;-87
2023/09/01 10:03:47;;;;;;;6.68;0.82;;;;;;;;;;4958602;28;20062;-87
2023/09/01 10:06:18;;;;;;;1.13;0.38;;;;;;;;;;4958115;28;20058;-87
2023/09/01 10:08:46;;;;;;;0.60;0.25;;;;;;;;;;4958258;28;20051;-86
2023/09/01 10:11:14;;;;;;;1.48;0.40;;;;;;;;;;4958510;28;20050;-89
2023/09/01 10:13:44;;;;;;;8.93;0.90;;;;;;;;;;4958427;28;20054;-87
2023/09/01 10:16:11;;;;;;;5.35;0.38;;;;;;;;;;4958239;28;20042;-88
2023/09/01 10:18:39;;;;;;;3.03;0.40;;;;;;;;;;4958027;28;20046;-87
2023/09/01 10:21:07;;;;;;;0.63;0.30;;;;;;;;;;4958267;28;20565;-88
2023/09/01 10:23:34;;;;;;;2.30;0.60;;;;;;;;;;4958903;28;20074;-92
2023/09/01 10:26:24;;;;;;;0.20;0.20;;;;;;;;;;4965969;28;20582;-88
2023/09/01 10:29:05;;;;;;;0.10;0.10;;;;;;;;;;4972437;28;20515;-87
2023/09/01 10:31:33;;;;;;;1.42;0.40;;;;;;;;;;4975002;28;20587;-89
2023/09/01 10:34:03;;;;;;;0.28;0.20;;;;;;;;;;4958448;28;20082;-88
2023/09/01 10:36:31;;;;;;;1.23;0.28;;;;;;;;;;4957919;28;20051;-88
2023/09/01 10:39:16;;;;;;;1.50;0.30;;;;;;;;;;4956973;28;20046;-88
2023/09/01 10:41:51;;;;;;;1.33;0.45;;;;;;;;;;4974594;28;20419;-89
2023/09/01 10:44:18;;;;;;;5.97;0.40;;;;;;;;;;4958051;28;20122;-89
2023/09/01 10:46:45;;;;;;;1.63;0.60;;;;;;;;;;4957593;28;20050;-89
2023/09/01 10:49:14;;;;;;;0.30;0.30;;;;;;;;;;4957879;28;20047;-87
2023/09/01 10:51:41;;;;;;;1.83;0.35;;;;;;;;;;4957577;28;20050;-88
2023/09/01 10:54:14;;;;;;;4.72;0.77;;;;;;;;;;4957595;28;20082;-89
2023/09/01 10:56:58;;;;;;;5.20;1.10;;;;;;;;;;4957463;28;20603;-88
2023/09/01 10:59:32;;;;;;;1.27;0.50;;;;;;;;;;4957502;28;20070;-87
2023/09/01 11:02:18;;;;;;;0.40;0.30;;;;;;;;;;4957641;28;20054;-89
2023/09/01 11:04:46;;;;;;;1.17;0.30;;;;;;;;;;4957592;28;20092;-89
2023/09/01 11:07:14;;;;;;;0.30;0.30;;;;;;;;;;4957598;28;20480;-88
2023/09/01 11:09:44;;;;;;;0.35;0.35;;;;;;;;;;4957596;28;20051;-88
2023/09/01 11:12:12;;;;;;;0.85;0.50;;;;;;;;;;4957813;28;20051;-89
2023/09/01 11:14:53;;;;;;;3.58;0.57;;;;;;;;;;4957532;28;20101;-89
2023/09/01 11:17:33;;;;;;;0.30;0.30;;;;;;;;;;4957460;28;20503;-93
2023/09/01 11:20:02;;;;;;;0.40;0.40;;;;;;;;;;4957297;28;20078;-89
2023/09/01 11:22:30;;;;;;;0.70;0.65;;;;;;;;;;4957213;28;20117;-87
2023/09/01 11:24:57;;;;;;;0.75;0.30;;;;;;;;;;4957112;28;20054;-90
2023/09/01 11:27:24;;;;;;;1.00;0.40;;;;;;;;;;4957501;28;20055;-89
2023/09/01 11:29:55;;;;;;;1.95;0.28;;;;;;;;;;4957339;28;20051;-89
2023/09/01 11:32:28;;;;;;;1.92;0.28;;;;;;;;;;4957791;28;20440;-92
2023/09/01 11:34:56;;;;;;;3.50;0.40;;;;;;;;;;4957362;28;20047;-89
2023/09/01 11:37:36;;;;;;;0.30;0.30;;;;;;;;;;4957334;28;20506;-89
2023/09/01 11:40:07;;;;;;;0.30;0.30;;;;;;;;;;4957161;28;20076;-90
2023/09/01 11:42:36;;;;;;;1.50;0.52;;;;;;;;;;4957657;28;20047;-96
2023/09/01 11:45:04;;;;;;;1.88;0.50;;;;;;;;;;4957619;28;20047;-87
2023/09/01 11:47:32;;;;;;;0.50;0.30;;;;;;;;;;4957567;28;20047;-90
2023/09/01 11:49:59;;;;;;;0.20;0.20;;;;;;;;;;4957372;28;20057;-89
2023/09/01 11:52:26;;;;;;;0.40;0.40;;;;;;;;;;4961327;28;20133;-89
2023/09/01 11:54:54;;;;;;;0.30;0.30;;;;;;;;;;4961330;28;20472;-88
2023/09/01 11:57:21;;;;;;;0.30;0.30;;;;;;;;;;4960748;28;20051;-88
2023/09/01 11:59:49;;;;;;;0.30;0.30;;;;;;;;;;4960996;28;20090;-89
2023/09/01 12:02:18;;;;;;;2.50;0.40;;;;;;;;;;4960880;28;20097;-92
2023/09/01 12:04:48;;;;;;;2.83;0.30;;;;;;;;;;4960815;28;20081;-89
2023/09/01 12:07:26;;;;;;;0.77;0.40;;;;;;;;;;4960859;28;20389;-91
2023/09/01 12:09:56;;;;;;;1.98;0.30;;;;;;;;;;4960950;28;20129;-89
2023/09/01 12:12:24;;;;;;;2.92;0.30;;;;;;;;;;4960849;28;20578;-88
2023/09/01 12:15:03;;;;;;;0.20;0.20;;;;;;;;;;4961765;28;20054;-91
2023/09/01 12:17:31;;;;;;;0.22;0.22;;;;;;;;;;4961316;28;20042;-89
2023/09/01 12:20:00;;;;;;;1.17;0.20;;;;;;;;;;4960821;28;20062;-87
2023/09/01 12:22:28;;;;;;;1.05;0.30;;;;;;;;;;4960410;28;20567;-91
2023/09/01 12:24:56;;;;;;;0.17;0.17;;;;;;;;;;4960537;28;20047;-91
2023/09/01 12:27:23;;;;;;;2.00;0.40;;;;;;;;;;4960737;28;20046;-90
2023/09/01 12:29:50;;;;;;;0.30;0.30;;;;;;;;;;4960286;28;20050;-89
2023/09/01 12:32:20;;;;;;;0.20;0.20;;;;;;;;;;4960964;28;20051;-89
2023/09/01 12:34:47;;;;;;;0.50;0.30;;;;;;;;;;4960096;28;20055;-89
2023/09/01 12:37:15;;;;;;;0.57;0.22;;;;;;;;;;4960756;28;20511;-91
2023/09/01 12:39:43;;;;;;;0.60;0.35;;;;;;;;;;4959650;28;20078;-87
2023/09/01 12:42:10;;;;;;;0.20;0.20;;;;;;;;;;4959879;28;20499;-90
2023/09/01 12:44:37;;;;;;;3.10;0.30;;;;;;;;;;4960119;28;20047;-87
2023/09/01 12:47:05;;;;;;;0.20;0.20;;;;;;;;;;4959647;28;20054;-87
2023/09/01 12:49:36;;;;;;;0.25;0.20;;;;;;;;;;4960421;28;20110;-91
2023/09/01 12:52:04;;;;;;;0.25;0.20;;;;;;;;;;4960001;28;20055;-88
2023/09/01 12:54:31;;;;;;;0.20;0.20;;;;;;;;;;4960001;28;20388;-89
2023/09/01 12:57:01;;;;;;;2.03;0.30;;;;;;;;;;4960408;28;20117;-91
2023/09/01 12:59:29;;;;;;;0.40;0.22;;;;;;;;;;4960050;28;20093;-89
2023/09/01 13:01:56;;;;;;;0.20;0.20;;;;;;;;;;4959032;28;20082;-88
2023/09/01 13:04:23;;;;;;;0.22;0.22;;;;;;;;;;4960087;28;20051;-90
2023/09/01 13:06:50;;;;;;;0.10;0.10;;;;;;;;;;4960938;28;20073;-88
2023/09/01 13:09:18;;;;;;;6.95;0.50;;;;;;;;;;4963502;28;20130;-89
2023/09/01 13:11:45;;;;;;;0.22;0.22;;;;;;;;;;4981463;28;20062;-89
2023/09/01 13:14:12;;;;;;;2.42;0.40;;;;;;;;;;4971119;28;20058;-88
2023/09/01 13:16:41;;;;;;;0.85;0.40;;;;;;;;;;4960397;28;20059;-88
2023/09/01 13:19:09;;;;;;;0.50;0.50;;;;;;;;;;4959803;28;20426;-88
2023/09/01 13:21:36;;;;;;;0.50;0.50;;;;;;;;;;4959239;28;20051;-88
2023/09/01 13:24:04;;;;;;;0.63;0.40;;;;;;;;;;4975786;28;20487;-88
2023/09/01 13:26:31;;;;;;;0.40;0.28;;;;;;;;;;4975873;28;20088;-88
2023/09/01 13:28:58;;;;;;;0.88;0.20;;;;;;;;;;4976082;28;20488;-88
2023/09/01 13:31:26;;;;;;;1.35;0.40;;;;;;;;;;4975865;28;20051;-87
2023/09/01 13:33:53;;;;;;;2.47;0.20;;;;;;;;;;4958955;28;20050;-88
2023/09/01 13:36:20;;;;;;;0.43;0.20;;;;;;;;;;4958986;28;20085;-88
2023/09/01 13:38:49;;;;;;;2.63;0.30;;;;;;;;;;4958892;28;20094;-87
2023/09/01 13:41:18;;;;;;;1.70;0.30;;;;;;;;;;4958403;28;20050;-87
2023/09/01 13:43:45;;;;;;;2.10;0.30;;;;;;;;;;4975859;28;20059;-88
2023/09/01 13:46:26;;;;;;;0.20;0.20;;;;;;;;;;4958639;28;20054;-87
2023/09/01 13:48:55;;;;;;;0.30;0.30;;;;;;;;;;4958819;28;20050;-88
2023/09/01 13:51:26;;;;;;;0.98;0.30;;;;;;;;;;4958685;28;20086;-88
2023/09/01 13:53:54;;;;;;;2.03;0.30;;;;;;;;;;4958609;28;20173;-88
2023/09/01 13:56:21;;;;;;;1.23;0.32;;;;;;;;;;4957796;28;20451;-88
2023/09/01 13:58:49;;;;;;;2.55;0.70;;;;;;;;;;4958597;28;20062;-87
2023/09/01 14:01:16;;;;;;;1.88;0.60;;;;;;;;;;4958583;28;20078;-88
2023/09/01 14:03:46;;;;;;;0.40;0.40;;;;;;;;;;4958416;28;20050;-87
2023/09/01 14:06:13;;;;;;;0.93;0.55;;;;;;;;;;4975461;28;20411;-88
2023/09/01 14:08:41;;;;;;;0.43;0.40;;;;;;;;;;4958158;28;20117;-87
2023/09/01 14:11:09;;;;;;;0.75;0.55;;;;;;;;;;4958291;28;20086;-88
2023/09/01 14:13:36;;;;;;;0.82;0.20;;;;;;;;;;4958164;28;20070;-88
2023/09/01 14:16:03;;;;;;;0.20;0.20;;;;;;;;;;4975139;28;20054;-88
2023/09/01 14:18:31;;;;;;;0.30;0.30;;;;;;;;;;4958674;28;20411;-88
2023/09/01 14:20:58;;;;;;;0.40;0.40;;;;;;;;;;4958162;28;20059;-89
2023/09/01 14:23:26;;;;;;;3.83;0.30;;;;;;;;;;4958194;28;20495;-89
2023/09/01 14:25:54;;;;;;;0.40;0.30;;;;;;;;;;4958073;28;20424;-89
2023/09/01 14:28:21;;;;;;;0.45;0.40;;;;;;;;;;4975072;28;20110;-88
2023/09/01 14:30:48;;;;;;;0.30;0.30;;;;;;;;;;4974951;28;20055;-89
2023/09/01 14:33:16;;;;;;;0.85;0.50;;;;;;;;;;4958031;28;20076;-89
2023/09/01 14:35:53;;;;;;;1.33;0.30;;;;;;;;;;4974627;28;20573;-88
2023/09/01 14:38:20;;;;;;;0.40;0.40;;;;;;;;;;4975105;28;20086;-90
2023/09/01 14:40:48;;;;;;;0.77;0.55;;;;;;;;;;4957830;28;20082;-89
2023/09/01 14:43:15;;;;;;;3.83;0.75;;;;;;;;;;4957979;28;20062;-88
2023/09/01 14:45:43;;;;;;;0.70;0.70;;;;;;;;;;4957922;28;20062;-88
2023/09/01 14:48:10;;;;;;;1.77;0.90;;;;;;;;;;4957795;28;20050;-87
2023/09/01 14:50:37;;;;;;;2.72;0.85;;;;;;;;;;4974851;28;20050;-88